Time;durP1;ratioP1;P1;durP2;ratioP2;P2;SDS_P1;SDS_P2;PMS_P1;PMS_P2;Temp;Humidity;BMP_temperature;BMP_pressure;BME280_temperature;BME280_humidity;BME280_pressure;Samples;Min_cycle;Max_cycle;Signal;HPM_P1;HPM_P2
2023/01/01 00:01:09;;;;;;;25.42;14.82;;;13.70;99.90;;;;;;4953566;28;20806;-74
2023/01/01 00:03:34;;;;;;;18.63;9.13;;;13.70;99.90;;;;;;4953728;28;20418;-74
2023/01/01 00:06:11;;;;;;;27.75;14.30;;;13.80;99.90;;;;;;4957328;28;20418;-73
2023/01/01 00:08:38;;;;;;;23.27;12.98;;;13.70;99.90;;;;;;4953295;28;20985;-72
2023/01/01 00:11:06;;;;;;;34.97;23.90;;;13.70;99.90;;;;;;4958189;28;20986;-74
2023/01/01 00:13:33;;;;;;;46.28;35.50;;;13.70;99.90;;;;;;4950850;28;20979;-76
2023/01/01 00:16:05;;;;;;;21.90;13.10;;;13.70;99.90;;;;;;4951817;28;20439;-75
2023/01/01 00:18:31;;;;;;;36.33;23.52;;;13.80;99.90;;;;;;4954300;28;20432;-75
2023/01/01 00:21:04;;;;;;;31.40;17.55;;;13.60;99.90;;;;;;4962996;28;20510;-76
2023/01/01 00:23:30;;;;;;;30.33;17.90;;;13.70;99.90;;;;;;4960420;28;20420;-76
2023/01/01 00:25:55;;;;;;;25.42;14.60;;;13.70;99.90;;;;;;4954803;28;20485;-76
2023/01/01 00:28:21;;;;;;;22.02;12.48;;;13.70;99.90;;;;;;4958780;28;20468;-75
2023/01/01 00:30:47;;;;;;;20.20;10.97;;;13.70;99.90;;;;;;4963129;28;20424;-76
2023/01/01 00:33:13;;;;;;;23.80;12.57;;;13.80;99.90;;;;;;4957390;28;20557;-76
2023/01/01 00:35:38;;;;;;;22.23;11.50;;;13.70;99.90;;;;;;4960148;28;20444;-77
2023/01/01 00:38:04;;;;;;;27.10;14.13;;;13.80;99.90;;;;;;4960592;28;20842;-76
2023/01/01 00:40:30;;;;;;;25.10;12.43;;;13.70;99.90;;;;;;4955791;28;20459;-75
2023/01/01 00:42:55;;;;;;;25.45;14.73;;;13.60;99.90;;;;;;4964900;28;20896;-77
2023/01/01 00:45:21;;;;;;;26.77;15.75;;;13.60;99.90;;;;;;4958530;28;20432;-78
2023/01/01 00:47:48;;;;;;;26.42;15.68;;;13.70;99.90;;;;;;4955427;28;20437;-76
2023/01/01 00:50:13;;;;;;;28.25;17.42;;;13.70;99.90;;;;;;4953643;28;20426;-75
2023/01/01 00:52:39;;;;;;;26.17;17.00;;;13.50;99.90;;;;;;4960759;28;20420;-74
2023/01/01 00:55:05;;;;;;;30.63;19.00;;;13.50;99.90;;;;;;4958284;28;20777;-75
2023/01/01 00:57:31;;;;;;;36.53;22.25;;;13.60;99.90;;;;;;4956905;28;20779;-75
2023/01/01 00:59:56;;;;;;;29.77;20.97;;;13.50;99.90;;;;;;4956277;28;20532;-77
2023/01/01 01:02:22;;;;;;;37.88;26.38;;;13.50;99.90;;;;;;4950948;28;20469;-76
2023/01/01 01:04:48;;;;;;;33.33;23.38;;;13.50;99.90;;;;;;4956315;28;20824;-76
2023/01/01 01:07:13;;;;;;;38.57;27.70;;;13.40;99.90;;;;;;4946162;28;20844;-76
2023/01/01 01:09:39;;;;;;;37.57;25.40;;;13.30;99.90;;;;;;4954160;28;21407;-76
2023/01/01 01:12:04;;;;;;;33.00;25.67;;;13.10;99.90;;;;;;4958947;28;20913;-76
2023/01/01 01:14:30;;;;;;;39.95;28.20;;;13.20;99.90;;;;;;4955927;28;20440;-75
2023/01/01 01:16:56;;;;;;;47.40;38.47;;;13.00;99.90;;;;;;4959881;28;20496;-77
2023/01/01 01:19:22;;;;;;;45.78;38.33;;;13.00;99.90;;;;;;4961610;28;20798;-74
2023/01/01 01:21:50;;;;;;;51.30;42.07;;;12.90;99.90;;;;;;4960571;28;20806;-74
2023/01/01 01:24:15;;;;;;;191.30;171.90;;;12.80;99.90;;;;;;4965378;28;20450;-74
2023/01/01 01:26:41;;;;;;;285.23;255.35;;;12.80;99.90;;;;;;4960503;28;20431;-74
2023/01/01 01:29:07;;;;;;;129.02;115.90;;;12.70;99.90;;;;;;4960028;28;20515;-74
2023/01/01 01:31:33;;;;;;;129.73;115.97;;;12.70;99.90;;;;;;4963190;28;20424;-74
2023/01/01 01:33:59;;;;;;;66.70;54.58;;;12.60;99.90;;;;;;4965202;28;20440;-75
2023/01/01 01:36:26;;;;;;;62.72;49.47;;;12.60;99.90;;;;;;4972539;28;20435;-74
2023/01/01 01:38:52;;;;;;;54.70;43.58;;;12.70;99.90;;;;;;4964315;28;20428;-75
2023/01/01 01:41:21;;;;;;;67.15;57.22;;;12.60;99.90;;;;;;4963618;28;20420;-74
2023/01/01 01:43:52;;;;;;;58.78;49.95;;;12.50;99.90;;;;;;4956378;28;20431;-74
2023/01/01 01:46:35;;;;;;;53.13;43.65;;;12.50;99.90;;;;;;4961055;28;20424;-75
2023/01/01 01:49:27;;;;;;;49.50;39.53;;;12.40;99.90;;;;;;4961440;28;20739;-73
2023/01/01 01:51:54;;;;;;;58.38;48.00;;;12.50;99.90;;;;;;4958956;28;20809;-77
2023/01/01 01:54:25;;;;;;;52.28;43.92;;;12.40;99.90;;;;;;4959174;28;20438;-76
2023/01/01 01:56:58;;;;;;;52.55;40.40;;;12.40;99.90;;;;;;4963509;28;20480;-75
2023/01/01 01:59:28;;;;;;;49.40;39.33;;;12.40;99.90;;;;;;4949536;28;20475;-74
2023/01/01 02:01:55;;;;;;;54.60;42.65;;;12.40;99.90;;;;;;4963618;28;20840;-75
2023/01/01 02:04:22;;;;;;;47.20;37.03;;;12.40;99.90;;;;;;4960653;28;20429;-75
2023/01/01 02:06:48;;;;;;;52.00;41.03;;;12.40;99.90;;;;;;4964826;28;21062;-75
2023/01/01 02:09:14;;;;;;;52.75;40.55;;;12.40;99.90;;;;;;4961061;28;20439;-78
2023/01/01 02:11:40;;;;;;;56.45;43.20;;;12.30;99.90;;;;;;4965235;28;20512;-75
2023/01/01 02:14:05;;;;;;;55.35;41.40;;;12.40;99.90;;;;;;4954905;28;20476;-75
2023/01/01 02:16:48;;;;;;;52.08;38.78;;;12.40;99.90;;;;;;4961055;28;20880;-76
2023/01/01 02:19:43;;;;;;;45.83;37.00;;;12.40;99.90;;;;;;4960543;28;20439;-76
2023/01/01 02:22:13;;;;;;;49.88;39.28;;;12.40;99.90;;;;;;4938887;28;20503;-74
2023/01/01 02:24:55;;;;;;;44.85;35.97;;;12.50;99.90;;;;;;4962418;28;20436;-75
2023/01/01 02:27:27;;;;;;;51.20;38.70;;;12.50;99.90;;;;;;4958231;28;20434;-77
2023/01/01 02:29:58;;;;;;;45.93;37.37;;;12.50;99.90;;;;;;4977583;28;21044;-78
2023/01/01 02:32:38;;;;;;;47.40;35.25;;;12.50;99.90;;;;;;4976355;28;20428;-74
2023/01/01 02:38:02;;;;;;;46.43;33.47;;;12.40;99.90;;;;;;4949655;28;20895;-74
2023/01/01 02:40:29;;;;;;;39.17;31.02;;;12.30;99.90;;;;;;4968517;28;20793;-74
2023/01/01 02:42:56;;;;;;;40.33;29.80;;;12.30;99.90;;;;;;4959023;28;20830;-74
2023/01/01 02:45:21;;;;;;;42.43;29.33;;;12.20;99.90;;;;;;4960719;28;20971;-75
2023/01/01 02:47:47;;;;;;;33.63;23.90;;;12.20;99.90;;;;;;4960055;28;20422;-75
2023/01/01 02:50:22;;;;;;;34.70;26.67;;;12.20;99.90;;;;;;4960535;28;20439;-75
2023/01/01 02:53:37;;;;;;;35.70;24.73;;;12.20;99.90;;;;;;4956575;28;20519;-77
2023/01/01 02:56:26;;;;;;;32.63;21.85;;;12.20;99.90;;;;;;4902578;28;20494;-75
2023/01/01 03:01:57;;;;;;;35.47;22.67;;;12.10;99.90;;;;;;4967312;28;20451;-75
2023/01/01 03:04:56;;;;;;;35.17;20.48;;;12.00;99.90;;;;;;4975592;28;20434;-74
2023/01/01 03:07:34;;;;;;;31.50;17.40;;;11.80;99.90;;;;;;4914681;28;20450;-76
2023/01/01 03:10:09;;;;;;;30.70;17.60;;;11.90;99.90;;;;;;4961805;28;20428;-74
2023/01/01 03:13:03;;;;;;;30.77;16.47;;;11.70;99.90;;;;;;4961294;28;20796;-76
2023/01/01 03:16:08;;;;;;;27.92;16.13;;;11.60;99.90;;;;;;4956009;28;20444;-76
2023/01/01 03:19:11;;;;;;;29.67;16.02;;;11.40;99.90;;;;;;4956713;28;20437;-74
2023/01/01 03:21:54;;;;;;;27.80;15.75;;;11.30;99.90;;;;;;4941130;28;20443;-76
2023/01/01 03:24:31;;;;;;;23.38;13.73;;;11.30;99.90;;;;;;4956915;28;20435;-75
2023/01/01 03:27:03;;;;;;;24.65;15.10;;;11.30;99.90;;;;;;4955932;28;20436;-77
2023/01/01 03:29:37;;;;;;;23.85;14.55;;;11.30;99.90;;;;;;4965688;28;20455;-76
2023/01/01 03:32:06;;;;;;;23.95;13.70;;;11.00;99.90;;;;;;4936252;28;20432;-74
2023/01/01 03:34:37;;;;;;;24.08;13.32;;;11.10;99.90;;;;;;4965874;28;20447;-74
2023/01/01 03:37:09;;;;;;;26.25;15.07;;;11.00;99.90;;;;;;4965188;28;20416;-75
2023/01/01 03:39:49;;;;;;;23.83;13.07;;;11.10;99.90;;;;;;4965225;28;20427;-74
2023/01/01 03:42:38;;;;;;;23.33;11.73;;;11.00;99.90;;;;;;4958682;28;20521;-76
2023/01/01 03:45:18;;;;;;;22.85;12.98;;;10.90;99.90;;;;;;4968457;28;20434;-76
2023/01/01 03:47:44;;;;;;;19.88;9.85;;;11.00;99.90;;;;;;4968069;28;20443;-74
2023/01/01 03:50:10;;;;;;;18.88;9.98;;;11.00;99.90;;;;;;4964922;28;20427;-75
2023/01/01 03:52:57;;;;;;;18.40;8.60;;;11.00;99.90;;;;;;4958513;28;20969;-76
2023/01/01 03:55:23;;;;;;;20.50;9.25;;;11.10;99.90;;;;;;4962177;28;20957;-76
2023/01/01 03:58:02;;;;;;;21.17;8.40;;;10.90;99.90;;;;;;4968648;28;20432;-74
2023/01/01 04:00:35;;;;;;;16.60;5.82;;;11.20;99.90;;;;;;4962689;28;20449;-75
2023/01/01 04:03:08;;;;;;;20.67;5.93;;;11.30;99.90;;;;;;4960250;28;20479;-75
2023/01/01 04:05:39;;;;;;;19.35;6.30;;;11.40;99.90;;;;;;4962345;28;20436;-78
2023/01/01 04:08:06;;;;;;;16.67;4.75;;;11.40;99.90;;;;;;4961643;28;20449;-74
2023/01/01 04:10:34;;;;;;;17.50;4.82;;;11.20;99.90;;;;;;4960214;28;20432;-74
2023/01/01 04:13:03;;;;;;;16.38;4.57;;;11.40;99.90;;;;;;4960625;28;20424;-75
2023/01/01 04:15:30;;;;;;;19.35;4.68;;;11.60;99.90;;;;;;4958821;28;20436;-76
2023/01/01 04:17:56;;;;;;;16.23;4.90;;;11.60;99.90;;;;;;4965545;28;20444;-76
2023/01/01 04:20:22;;;;;;;25.10;6.07;;;11.70;99.90;;;;;;4960818;28;20491;-76
2023/01/01 04:22:48;;;;;;;24.80;5.57;;;11.70;99.90;;;;;;4965186;28;20470;-76
2023/01/01 04:25:14;;;;;;;21.30;5.28;;;11.60;99.90;;;;;;4962784;28;20439;-77
2023/01/01 04:27:40;;;;;;;24.80;6.88;;;11.60;99.90;;;;;;4944852;29;20544;-75
2023/01/01 04:30:10;;;;;;;19.13;5.85;;;11.50;99.90;;;;;;4967573;28;20514;-78
2023/01/01 04:32:36;;;;;;;21.33;4.95;;;11.50;99.90;;;;;;4957824;28;20428;-75
2023/01/01 04:35:01;;;;;;;22.23;6.70;;;11.30;99.90;;;;;;4960099;28;20951;-75
2023/01/01 04:37:27;;;;;;;22.90;5.38;;;11.60;99.90;;;;;;4964495;28;20869;-75
2023/01/01 04:39:53;;;;;;;22.52;6.60;;;11.60;99.90;;;;;;4966699;28;20763;-76
2023/01/01 04:42:19;;;;;;;20.17;5.93;;;11.40;99.90;;;;;;4964749;28;20419;-75
2023/01/01 04:44:44;;;;;;;17.80;4.75;;;11.40;99.90;;;;;;4965684;28;20432;-74
2023/01/01 04:47:10;;;;;;;21.57;5.37;;;11.30;99.90;;;;;;4964150;28;20980;-75
2023/01/01 04:49:36;;;;;;;22.50;6.03;;;11.40;99.90;;;;;;4966336;28;20431;-77
2023/01/01 04:52:02;;;;;;;20.15;4.90;;;11.20;99.90;;;;;;4964456;28;20436;-76
2023/01/01 04:54:28;;;;;;;16.55;4.93;;;11.20;99.90;;;;;;4963432;28;20952;-75
2023/01/01 04:56:54;;;;;;;18.37;5.30;;;11.40;99.90;;;;;;4970968;28;20442;-75
2023/01/01 04:59:19;;;;;;;14.43;4.20;;;11.10;99.90;;;;;;4965438;28;20446;-74
2023/01/01 05:01:45;;;;;;;15.03;5.10;;;11.30;99.90;;;;;;4968061;28;20445;-76
2023/01/01 05:04:15;;;;;;;13.70;4.03;;;11.20;99.90;;;;;;4971075;28;20416;-75
2023/01/01 05:06:41;;;;;;;18.17;4.38;;;11.30;99.90;;;;;;4959178;28;20449;-75
2023/01/01 05:09:08;;;;;;;15.80;3.87;;;11.30;99.90;;;;;;4954601;28;20416;-76
2023/01/01 05:11:34;;;;;;;14.43;4.18;;;11.30;99.90;;;;;;4948919;28;20437;-74
2023/01/01 05:14:01;;;;;;;12.73;3.93;;;11.40;99.90;;;;;;4960989;28;20720;-74
2023/01/01 05:16:29;;;;;;;16.92;4.18;;;11.30;99.90;;;;;;4961383;28;20452;-74
2023/01/01 05:18:55;;;;;;;14.82;3.90;;;11.40;99.90;;;;;;4971637;28;20422;-76
2023/01/01 05:21:27;;;;;;;11.55;3.47;;;11.50;99.90;;;;;;4969273;28;20794;-76
2023/01/01 05:23:54;;;;;;;11.30;3.20;;;11.60;99.90;;;;;;4953442;28;20773;-75
2023/01/01 05:26:22;;;;;;;12.47;3.90;;;11.50;99.90;;;;;;4972354;28;20447;-75
2023/01/01 05:28:48;;;;;;;10.20;3.13;;;11.50;99.90;;;;;;4945244;28;20416;-75
2023/01/01 05:31:18;;;;;;;10.30;3.15;;;11.50;99.90;;;;;;4962559;28;20436;-77
2023/01/01 05:33:44;;;;;;;18.45;4.30;;;11.60;99.90;;;;;;4963924;28;20423;-76
2023/01/01 05:36:14;;;;;;;7.18;2.60;;;11.50;99.90;;;;;;4944914;28;20799;-75
2023/01/01 05:38:40;;;;;;;11.55;3.53;;;11.50;99.90;;;;;;4966655;28;20431;-75
2023/01/01 05:41:07;;;;;;;12.82;2.45;;;11.40;99.90;;;;;;4971026;28;20436;-74
2023/01/01 05:43:33;;;;;;;10.40;2.80;;;11.50;99.90;;;;;;4961561;28;20519;-74
2023/01/01 05:46:12;;;;;;;13.80;2.67;;;11.50;99.90;;;;;;4962127;28;20435;-75
2023/01/01 05:48:38;;;;;;;10.23;2.53;;;11.50;99.90;;;;;;4977044;28;20418;-75
2023/01/01 05:51:09;;;;;;;11.10;2.75;;;11.50;99.90;;;;;;4967813;28;20769;-75
2023/01/01 05:53:36;;;;;;;10.13;2.83;;;11.40;99.90;;;;;;4963121;28;20470;-76
2023/01/01 05:56:02;;;;;;;9.80;2.22;;;11.40;99.90;;;;;;4957397;28;20485;-76
2023/01/01 05:58:29;;;;;;;10.35;2.47;;;11.40;99.90;;;;;;4962294;28;20435;-75
2023/01/01 06:00:55;;;;;;;10.93;2.38;;;11.30;99.90;;;;;;4957979;28;20906;-75
2023/01/01 06:03:21;;;;;;;10.43;2.80;;;11.30;99.90;;;;;;4963614;28;20455;-76
2023/01/01 06:05:47;;;;;;;10.05;2.90;;;11.30;99.90;;;;;;4962075;28;20447;-76
2023/01/01 06:08:13;;;;;;;7.50;2.15;;;11.30;99.90;;;;;;4955476;28;20436;-75
2023/01/01 06:10:38;;;;;;;11.63;2.38;;;11.30;99.90;;;;;;4962094;28;20520;-76
2023/01/01 06:13:04;;;;;;;13.57;3.17;;;11.30;99.90;;;;;;4962266;28;20458;-73
2023/01/01 06:15:30;;;;;;;10.07;2.40;;;11.20;99.90;;;;;;4960094;28;20787;-77
2023/01/01 06:17:57;;;;;;;11.40;2.58;;;11.20;99.90;;;;;;4963495;28;20424;-77
2023/01/01 06:20:22;;;;;;;12.27;2.60;;;11.20;99.90;;;;;;4960872;28;20459;-75
2023/01/01 06:22:48;;;;;;;13.38;2.50;;;11.10;99.90;;;;;;4961420;28;20427;-75
2023/01/01 06:25:14;;;;;;;10.25;2.35;;;11.10;99.90;;;;;;4962582;28;20519;-75
2023/01/01 06:27:39;;;;;;;10.77;2.88;;;11.20;99.90;;;;;;4962520;28;20423;-76
2023/01/01 06:30:06;;;;;;;9.20;2.50;;;11.10;99.90;;;;;;4962048;28;21533;-77
2023/01/01 06:32:32;;;;;;;11.18;2.67;;;11.10;99.90;;;;;;4962826;28;20829;-75
2023/01/01 06:34:58;;;;;;;12.68;2.75;;;11.10;99.90;;;;;;4959185;28;20440;-75
2023/01/01 06:37:24;;;;;;;12.23;2.47;;;11.20;99.90;;;;;;4959254;28;20906;-75
2023/01/01 06:39:49;;;;;;;12.38;3.33;;;11.10;99.90;;;;;;4958710;28;20495;-75
2023/01/01 06:42:15;;;;;;;18.70;3.33;;;11.10;99.90;;;;;;4960706;28;20431;-76
2023/01/01 06:44:41;;;;;;;14.63;2.70;;;11.10;99.90;;;;;;4958626;28;20476;-76
2023/01/01 06:47:06;;;;;;;11.77;3.30;;;11.10;99.90;;;;;;4962300;28;20424;-76
2023/01/01 06:49:32;;;;;;;12.83;2.40;;;11.10;99.90;;;;;;4962759;28;20471;-77
2023/01/01 06:51:58;;;;;;;13.63;3.43;;;11.00;99.90;;;;;;4957272;28;20468;-75
2023/01/01 06:54:24;;;;;;;10.80;2.50;;;10.90;99.90;;;;;;4944811;28;20464;-76
2023/01/01 06:56:49;;;;;;;15.90;3.60;;;11.00;99.90;;;;;;4963219;28;20904;-75
2023/01/01 06:59:16;;;;;;;15.87;4.30;;;10.90;99.90;;;;;;4964221;28;20436;-75
2023/01/01 07:01:42;;;;;;;17.42;3.75;;;11.00;99.90;;;;;;4928421;28;20432;-77
2023/01/01 07:04:12;;;;;;;20.08;3.50;;;10.90;99.90;;;;;;4955473;28;20482;-76
2023/01/01 07:06:38;;;;;;;13.52;3.22;;;10.90;99.90;;;;;;4961483;28;20428;-77
2023/01/01 07:09:05;;;;;;;12.80;3.22;;;10.90;99.90;;;;;;4970114;28;20418;-76
2023/01/01 07:11:31;;;;;;;22.17;4.00;;;10.90;99.90;;;;;;4963473;28;20432;-76
2023/01/01 07:13:57;;;;;;;17.45;4.45;;;10.90;99.90;;;;;;4961218;28;20428;-76
2023/01/01 07:16:23;;;;;;;16.15;3.80;;;10.80;99.90;;;;;;4962066;28;20448;-75
2023/01/01 07:18:50;;;;;;;22.00;3.95;;;10.80;99.90;;;;;;4966004;28;20757;-76
2023/01/01 07:21:31;;;;;;;16.33;4.18;;;10.90;99.90;;;;;;4943617;28;21012;-77
2023/01/01 07:24:03;;;;;;;17.20;4.80;;;10.90;99.90;;;;;;4958088;28;20783;-77
2023/01/01 07:26:30;;;;;;;20.67;5.03;;;10.80;99.90;;;;;;4968668;28;20518;-75
2023/01/01 07:28:56;;;;;;;19.60;4.17;;;10.80;99.90;;;;;;4957197;28;20703;-76
2023/01/01 07:31:21;;;;;;;21.20;5.18;;;10.70;99.90;;;;;;4969636;28;20430;-76
2023/01/01 07:33:47;;;;;;;22.50;5.07;;;10.80;99.90;;;;;;4973951;28;20432;-76
2023/01/01 07:36:13;;;;;;;20.10;4.30;;;10.80;99.90;;;;;;4951539;28;21035;-76
2023/01/01 07:38:39;;;;;;;19.38;4.80;;;10.80;99.90;;;;;;4959239;28;20427;-75
2023/01/01 07:41:05;;;;;;;22.13;5.18;;;10.80;99.90;;;;;;4963248;28;20432;-76
2023/01/01 07:43:30;;;;;;;27.77;4.45;;;10.70;99.90;;;;;;4959858;28;20455;-76
2023/01/01 07:46:00;;;;;;;18.20;4.50;;;10.70;99.90;;;;;;4973580;28;20447;-76
2023/01/01 07:48:25;;;;;;;19.15;4.20;;;10.80;99.90;;;;;;4962550;28;20415;-76
2023/01/01 07:50:51;;;;;;;18.42;4.57;;;10.70;99.90;;;;;;4962624;28;20780;-76
2023/01/01 07:53:17;;;;;;;23.73;5.40;;;10.70;99.90;;;;;;4956221;28;20803;-77
2023/01/01 07:55:44;;;;;;;17.48;4.43;;;10.70;99.90;;;;;;4960901;28;20901;-76
2023/01/01 07:58:11;;;;;;;22.00;4.88;;;10.70;99.90;;;;;;4959689;28;20424;-76
2023/01/01 08:03:44;;;;;;;22.45;5.07;;;10.60;99.90;;;;;;4344099;23;20440;-76
2023/01/01 08:06:11;;;;;;;20.48;5.30;;;10.90;99.90;;;;;;4959490;28;20531;-76
2023/01/01 08:08:38;;;;;;;28.75;7.00;;;10.70;99.90;;;;;;4960418;28;20424;-80
2023/01/01 08:11:04;;;;;;;24.20;5.57;;;10.70;99.90;;;;;;4962182;28;20439;-75
2023/01/01 08:13:29;;;;;;;22.83;4.75;;;10.70;99.90;;;;;;4962335;28;20456;-77
2023/01/01 08:15:57;;;;;;;25.93;6.37;;;10.70;99.90;;;;;;4969721;28;20648;-76
2023/01/01 08:18:22;;;;;;;22.25;4.93;;;10.60;99.90;;;;;;4948181;28;20415;-75
2023/01/01 08:20:48;;;;;;;27.33;5.53;;;10.60;99.90;;;;;;4965232;28;20857;-75
2023/01/01 08:23:13;;;;;;;27.80;6.35;;;10.70;99.90;;;;;;4965380;28;20499;-76
2023/01/01 08:25:39;;;;;;;21.33;4.65;;;10.70;99.90;;;;;;4964628;28;20973;-75
2023/01/01 08:28:05;;;;;;;23.85;5.60;;;10.60;99.90;;;;;;4967631;28;20822;-76
2023/01/01 08:30:30;;;;;;;22.03;5.47;;;10.60;99.90;;;;;;4977305;28;20427;-75
2023/01/01 08:32:56;;;;;;;26.00;5.67;;;10.60;99.90;;;;;;4964982;28;20404;-76
2023/01/01 08:35:22;;;;;;;27.10;5.70;;;10.60;99.90;;;;;;4976422;28;20792;-76
2023/01/01 08:37:47;;;;;;;28.27;5.28;;;10.60;99.90;;;;;;4976340;28;20434;-74
2023/01/01 08:40:13;;;;;;;19.40;4.32;;;10.70;99.90;;;;;;4966179;28;20870;-74
2023/01/01 08:42:39;;;;;;;22.50;4.78;;;10.70;99.90;;;;;;4965313;28;20434;-75
2023/01/01 08:45:05;;;;;;;26.10;5.85;;;10.70;99.90;;;;;;4965270;28;20499;-75
2023/01/01 08:47:31;;;;;;;23.75;5.85;;;10.60;99.90;;;;;;4947235;28;20427;-74
2023/01/01 08:49:57;;;;;;;23.60;5.97;;;10.70;99.90;;;;;;4963638;28;20434;-77
2023/01/01 08:52:22;;;;;;;22.00;5.57;;;10.70;99.90;;;;;;4965215;28;20424;-75
2023/01/01 08:54:48;;;;;;;28.87;5.37;;;10.70;99.90;;;;;;4978863;28;20430;-74
2023/01/01 08:57:14;;;;;;;24.30;5.77;;;10.80;99.90;;;;;;4981426;28;20488;-75
2023/01/01 08:59:40;;;;;;;36.50;7.03;;;10.70;99.90;;;;;;4973567;28;20429;-75
2023/01/01 09:02:06;;;;;;;26.10;6.27;;;10.70;99.90;;;;;;4955429;28;20420;-75
2023/01/01 09:04:32;;;;;;;24.52;6.40;;;10.70;99.90;;;;;;4961032;28;20440;-74
2023/01/01 09:06:57;;;;;;;23.05;4.90;;;10.70;99.90;;;;;;4949800;28;20443;-75
2023/01/01 09:09:23;;;;;;;29.52;5.78;;;10.80;99.90;;;;;;4957901;28;20434;-76
2023/01/01 09:11:53;;;;;;;24.70;5.67;;;10.80;99.90;;;;;;4940484;28;20749;-75
2023/01/01 09:14:20;;;;;;;24.23;4.65;;;10.80;99.90;;;;;;4944734;29;20432;-76
2023/01/01 09:16:45;;;;;;;24.17;4.70;;;10.80;99.90;;;;;;4961408;28;20455;-75
2023/01/01 09:19:12;;;;;;;27.13;6.95;;;10.80;99.90;;;;;;4959186;28;20431;-74
2023/01/01 09:21:37;;;;;;;28.58;5.38;;;10.90;99.90;;;;;;4961433;28;20949;-77
2023/01/01 09:24:03;;;;;;;23.03;5.20;;;10.70;99.90;;;;;;4961670;28;20428;-75
2023/01/01 09:26:29;;;;;;;22.15;5.10;;;10.80;99.90;;;;;;4962121;28;20444;-75
2023/01/01 09:28:54;;;;;;;21.97;5.60;;;10.80;99.90;;;;;;4974438;28;20428;-75
2023/01/01 09:31:20;;;;;;;21.52;4.50;;;10.80;99.90;;;;;;4964172;28;20463;-75
2023/01/01 09:33:46;;;;;;;27.27;6.05;;;10.80;99.90;;;;;;4958584;28;20953;-76
2023/01/01 09:36:18;;;;;;;24.02;5.72;;;10.90;99.90;;;;;;4962876;28;20515;-75
2023/01/01 09:38:52;;;;;;;23.08;4.97;;;10.80;99.90;;;;;;4962314;28;20446;-75
2023/01/01 09:41:26;;;;;;;23.13;4.05;;;10.80;99.90;;;;;;4963882;28;20436;-74
2023/01/01 09:43:58;;;;;;;24.00;5.68;;;10.80;99.90;;;;;;4984063;28;20410;-74
2023/01/01 09:46:25;;;;;;;26.65;6.53;;;10.80;99.90;;;;;;4954601;28;20432;-75
2023/01/01 09:49:01;;;;;;;26.40;5.20;;;10.90;99.90;;;;;;4964380;28;21034;-75
2023/01/01 09:51:33;;;;;;;31.97;6.60;;;10.90;99.90;;;;;;4962165;28;20440;-74
2023/01/01 09:54:15;;;;;;;22.87;6.23;;;10.90;99.90;;;;;;4964591;28;20500;-74
2023/01/01 09:56:44;;;;;;;18.98;4.78;;;10.80;99.90;;;;;;4964607;28;20447;-76
2023/01/01 09:59:10;;;;;;;20.35;4.88;;;11.00;99.90;;;;;;4963509;28;21012;-74
2023/01/01 10:02:10;;;;;;;30.50;7.57;;;11.00;99.90;;;;;;4963831;28;20432;-75
2023/01/01 10:04:45;;;;;;;27.23;7.10;;;11.10;99.90;;;;;;4943279;28;20464;-76
2023/01/01 10:07:49;;;;;;;21.33;5.53;;;11.10;99.90;;;;;;4958955;28;20479;-73
2023/01/01 10:10:43;;;;;;;23.85;5.55;;;11.10;99.90;;;;;;4956447;28;20444;-74
2023/01/01 10:13:29;;;;;;;23.02;6.07;;;11.20;99.90;;;;;;4959468;28;20444;-74
2023/01/01 10:16:03;;;;;;;23.02;5.80;;;11.20;99.90;;;;;;4960871;28;20436;-74
2023/01/01 10:18:37;;;;;;;25.48;5.60;;;11.30;99.90;;;;;;4964268;28;20428;-74
2023/01/01 10:21:08;;;;;;;21.02;4.78;;;11.30;99.90;;;;;;4969661;28;20485;-75
2023/01/01 10:23:42;;;;;;;21.77;5.53;;;11.30;99.90;;;;;;4981655;28;20859;-73
2023/01/01 10:26:14;;;;;;;27.13;7.60;;;11.20;99.90;;;;;;4966126;28;20429;-73
2023/01/01 10:29:04;;;;;;;28.13;8.48;;;11.20;99.90;;;;;;4978960;28;20419;-73
2023/01/01 10:31:44;;;;;;;26.95;7.10;;;11.10;99.90;;;;;;4964039;28;21029;-75
2023/01/01 10:34:18;;;;;;;28.42;7.35;;;11.00;99.90;;;;;;4960723;28;20423;-74
2023/01/01 10:36:44;;;;;;;21.60;7.22;;;11.10;99.90;;;;;;4961080;28;20439;-73
2023/01/01 10:39:17;;;;;;;24.83;9.02;;;11.00;99.90;;;;;;4969323;28;20565;-75
2023/01/01 10:41:46;;;;;;;22.58;6.22;;;11.10;99.90;;;;;;4944460;28;20476;-73
2023/01/01 10:44:15;;;;;;;26.23;6.45;;;11.00;99.90;;;;;;4957396;28;20463;-75
2023/01/01 10:46:46;;;;;;;21.63;6.25;;;11.00;99.90;;;;;;4961917;28;20482;-72
2023/01/01 10:49:13;;;;;;;20.35;5.85;;;11.00;99.90;;;;;;4959596;28;21307;-77
2023/01/01 10:51:45;;;;;;;25.33;6.23;;;11.10;99.90;;;;;;4965445;28;20787;-73
2023/01/01 10:54:28;;;;;;;21.30;4.75;;;11.10;99.90;;;;;;4960191;28;20436;-75
2023/01/01 10:56:54;;;;;;;19.58;4.10;;;11.10;99.90;;;;;;4966559;28;20485;-75
2023/01/01 10:59:37;;;;;;;15.70;4.25;;;11.10;99.90;;;;;;4966127;28;20416;-74
2023/01/01 11:02:25;;;;;;;24.63;5.72;;;11.10;99.90;;;;;;4957989;28;20498;-74
2023/01/01 11:05:10;;;;;;;22.17;5.95;;;11.20;99.90;;;;;;4961510;28;20430;-74
2023/01/01 11:07:39;;;;;;;16.50;4.00;;;11.20;99.90;;;;;;4963008;28;20434;-74
2023/01/01 11:10:06;;;;;;;16.95;4.00;;;11.30;99.90;;;;;;4962557;28;20428;-74
2023/01/01 11:12:36;;;;;;;13.93;3.58;;;11.10;99.90;;;;;;4961912;28;21062;-75
2023/01/01 11:15:03;;;;;;;18.52;4.05;;;11.20;99.90;;;;;;4959495;28;20447;-76
2023/01/01 11:17:31;;;;;;;18.75;4.38;;;11.30;99.90;;;;;;4976933;28;20833;-75
2023/01/01 11:19:57;;;;;;;18.00;4.22;;;11.30;99.90;;;;;;4981562;28;20433;-77
2023/01/01 11:22:50;;;;;;;20.05;4.60;;;11.30;99.90;;;;;;4981314;28;20501;-75
2023/01/01 11:25:28;;;;;;;17.90;4.37;;;11.20;99.90;;;;;;4969448;28;20958;-76
2023/01/01 11:28:35;;;;;;;17.50;3.97;;;11.20;99.90;;;;;;4926571;29;20430;-79
2023/01/01 11:31:14;;;;;;;18.10;4.97;;;11.20;99.90;;;;;;4924067;29;20498;-76
2023/01/01 11:34:02;;;;;;;18.92;4.00;;;11.20;99.90;;;;;;4904593;29;20443;-76
2023/01/01 11:36:32;;;;;;;19.63;5.63;;;11.20;99.90;;;;;;4950710;28;20479;-75
2023/01/01 11:39:10;;;;;;;17.95;3.97;;;11.20;99.90;;;;;;4944300;28;20483;-77
2023/01/01 11:41:42;;;;;;;16.15;3.70;;;11.20;99.90;;;;;;4960417;28;20428;-76
2023/01/01 11:44:11;;;;;;;15.23;3.80;;;11.20;99.90;;;;;;4961319;28;20514;-75
2023/01/01 11:46:38;;;;;;;21.73;5.50;;;11.20;99.90;;;;;;4970076;28;20421;-78
2023/01/01 11:49:12;;;;;;;16.80;4.15;;;11.20;99.90;;;;;;4982858;28;21003;-77
2023/01/01 11:51:38;;;;;;;21.45;5.15;;;11.20;99.90;;;;;;4967723;28;20410;-75
2023/01/01 11:54:24;;;;;;;13.57;3.35;;;11.30;99.90;;;;;;4956836;28;20920;-79
2023/01/01 11:56:55;;;;;;;15.93;3.60;;;11.30;99.90;;;;;;4964925;28;20435;-76
2023/01/01 11:59:27;;;;;;;20.42;4.72;;;11.30;99.90;;;;;;4948324;28;20467;-76
2023/01/01 12:01:58;;;;;;;17.15;4.43;;;11.50;99.90;;;;;;4947059;28;20431;-78
2023/01/01 12:04:47;;;;;;;20.45;4.47;;;11.60;99.90;;;;;;4944861;29;20829;-77
2023/01/01 12:07:21;;;;;;;22.88;4.43;;;11.50;99.90;;;;;;4944930;29;20430;-76
2023/01/01 12:10:03;;;;;;;20.60;4.70;;;11.50;99.90;;;;;;4937516;28;20468;-78
2023/01/01 12:12:40;;;;;;;21.92;3.95;;;11.50;99.90;;;;;;4940709;28;20439;-79
2023/01/01 12:15:14;;;;;;;16.67;3.50;;;11.50;99.90;;;;;;4981281;28;21037;-78
2023/01/01 12:17:46;;;;;;;13.15;3.72;;;11.60;99.90;;;;;;4978841;28;20798;-75
2023/01/01 12:20:14;;;;;;;14.00;3.47;;;11.50;99.90;;;;;;4965246;28;20472;-75
2023/01/01 12:22:41;;;;;;;15.07;4.35;;;11.70;99.90;;;;;;4965888;28;20452;-77
2023/01/01 12:25:12;;;;;;;22.90;5.00;;;11.70;99.90;;;;;;4966341;28;20428;-76
2023/01/01 12:27:56;;;;;;;13.57;4.03;;;11.60;99.90;;;;;;4952106;28;20416;-77
2023/01/01 12:30:41;;;;;;;10.63;2.75;;;11.70;99.90;;;;;;4964612;28;20994;-77
2023/01/01 12:33:35;;;;;;;14.90;3.95;;;11.60;99.90;;;;;;4973773;28;20449;-77
2023/01/01 12:36:10;;;;;;;18.80;4.38;;;11.70;99.90;;;;;;4979582;28;20436;-74
2023/01/01 12:38:45;;;;;;;18.80;4.18;;;11.70;99.90;;;;;;4965277;28;20455;-76
2023/01/01 12:41:12;;;;;;;14.38;4.05;;;11.70;99.90;;;;;;4970532;28;20427;-77
2023/01/01 12:43:44;;;;;;;16.17;4.63;;;11.80;99.90;;;;;;4963602;28;20912;-77
2023/01/01 12:46:20;;;;;;;16.33;3.88;;;11.80;99.90;;;;;;4963406;28;20479;-74
2023/01/01 12:49:00;;;;;;;21.05;4.78;;;11.70;99.90;;;;;;4953908;28;20473;-75
2023/01/01 12:52:06;;;;;;;16.80;4.45;;;11.80;99.90;;;;;;4956293;28;20432;-74
2023/01/01 12:54:45;;;;;;;14.30;3.07;;;11.80;99.90;;;;;;4960438;28;20451;-76
2023/01/01 12:57:18;;;;;;;16.90;4.35;;;11.80;99.90;;;;;;4964124;28;20424;-74
2023/01/01 12:59:48;;;;;;;16.03;3.87;;;11.80;99.90;;;;;;4962122;28;20542;-77